Time;durP1;ratioP1;P1;durP2;ratioP2;P2;SDS_P1;SDS_P2;PMS_P1;PMS_P2;Temp;Humidity;BMP_temperature;BMP_pressure;BME280_temperature;BME280_humidity;BME280_pressure;Samples;Min_cycle;Max_cycle;Signal;HPM_P1;HPM_P2
2020/12/13 00:00:51;;;;;;;13.35;4.63;;;;;;;;;;5013510;28;20041;-74
2020/12/13 00:03:17;;;;;;;21.48;5.90;;;;;;;;;;5013400;28;20030;-73
2020/12/13 00:05:43;;;;;;;14.15;4.93;;;;;;;;;;5013557;28;20053;-72
2020/12/13 00:08:09;;;;;;;15.27;5.80;;;;;;;;;;5013430;28;20033;-73
2020/12/13 00:10:35;;;;;;;18.92;4.40;;;;;;;;;;5013461;28;20382;-73
2020/12/13 00:13:01;;;;;;;13.88;4.78;;;;;;;;;;5013506;28;20525;-73
2020/12/13 00:15:28;;;;;;;17.08;5.47;;;;;;;;;;5013705;28;20045;-73
2020/12/13 00:17:54;;;;;;;17.42;5.28;;;;;;;;;;5013345;28;20025;-73
2020/12/13 00:20:20;;;;;;;18.45;6.20;;;;;;;;;;5013147;28;20386;-74
2020/12/13 00:22:47;;;;;;;14.57;4.85;;;;;;;;;;5013381;28;20386;-72
2020/12/13 00:25:13;;;;;;;16.92;5.30;;;;;;;;;;5013228;28;20032;-74
2020/12/13 00:27:40;;;;;;;18.27;5.25;;;;;;;;;;5013151;28;20032;-73
2020/12/13 00:30:07;;;;;;;14.27;4.55;;;;;;;;;;5012852;28;20443;-73
2020/12/13 00:32:33;;;;;;;16.85;4.00;;;;;;;;;;5013303;28;20088;-73
2020/12/13 00:34:59;;;;;;;12.63;3.97;;;;;;;;;;5012882;28;20109;-73
2020/12/13 00:37:26;;;;;;;11.88;4.15;;;;;;;;;;5013123;28;20021;-73
2020/12/13 00:39:52;;;;;;;14.57;4.65;;;;;;;;;;5012647;28;20367;-73
2020/12/13 00:42:18;;;;;;;13.73;4.60;;;;;;;;;;5013247;28;20022;-72
2020/12/13 00:44:45;;;;;;;16.70;4.70;;;;;;;;;;5011800;28;20694;-73
2020/12/13 00:47:11;;;;;;;12.60;4.28;;;;;;;;;;5013735;28;20064;-73
2020/12/13 00:49:37;;;;;;;14.63;3.88;;;;;;;;;;5012888;28;20029;-72
2020/12/13 00:52:04;;;;;;;15.30;4.10;;;;;;;;;;5013515;28;20041;-74
2020/12/13 00:54:30;;;;;;;16.98;4.80;;;;;;;;;;5012049;28;20136;-73
2020/12/13 00:56:56;;;;;;;16.52;4.43;;;;;;;;;;5013837;28;20026;-72
2020/12/13 00:59:22;;;;;;;13.55;4.10;;;;;;;;;;5013401;28;20028;-73
2020/12/13 01:01:49;;;;;;;17.75;4.10;;;;;;;;;;5012113;28;20116;-73
2020/12/13 01:04:15;;;;;;;17.20;4.47;;;;;;;;;;5018964;28;20022;-72
2020/12/13 01:06:44;;;;;;;15.02;4.40;;;;;;;;;;5016758;28;20037;-72
2020/12/13 01:09:10;;;;;;;16.40;4.82;;;;;;;;;;5013097;28;20037;-72
2020/12/13 01:11:37;;;;;;;13.57;4.63;;;;;;;;;;5012712;28;20045;-73
2020/12/13 01:14:03;;;;;;;15.32;4.85;;;;;;;;;;5012620;28;20026;-71
2020/12/13 01:16:30;;;;;;;15.93;5.10;;;;;;;;;;5012422;28;20022;-73
2020/12/13 01:18:59;;;;;;;13.95;3.97;;;;;;;;;;5012285;28;20412;-73
2020/12/13 01:21:26;;;;;;;18.75;4.82;;;;;;;;;;5012620;28;20479;-71
2020/12/13 01:23:55;;;;;;;15.88;5.22;;;;;;;;;;5012474;28;20137;-72
2020/12/13 01:26:24;;;;;;;15.25;4.50;;;;;;;;;;5011105;28;20066;-73
2020/12/13 01:28:50;;;;;;;;;;;;;;;;;;5013051;28;20088;-73
2020/12/13 01:31:17;;;;;;;18.13;4.65;;;;;;;;;;5012236;28;19905;-72
2020/12/13 01:33:44;;;;;;;18.15;6.22;;;;;;;;;;5006514;28;20030;-72
2020/12/13 01:36:11;;;;;;;13.40;5.30;;;;;;;;;;5012254;28;20113;-72
2020/12/13 01:38:37;;;;;;;11.77;4.38;;;;;;;;;;5012231;28;20029;-73
2020/12/13 01:41:03;;;;;;;14.65;5.32;;;;;;;;;;5012635;28;20391;-73
2020/12/13 01:43:29;;;;;;;16.10;4.80;;;;;;;;;;5012370;28;20049;-72
2020/12/13 01:45:55;;;;;;;19.23;4.47;;;;;;;;;;5012194;28;20031;-73
2020/12/13 01:48:21;;;;;;;13.15;3.92;;;;;;;;;;5012299;28;20025;-73
2020/12/13 01:53:24;;;;;;;16.95;4.97;;;;;;;;;;5012111;28;20044;-73
2020/12/13 01:55:51;;;;;;;18.17;4.57;;;;;;;;;;5012028;28;20046;-74
2020/12/13 01:58:19;;;;;;;13.45;4.22;;;;;;;;;;5010796;28;20034;-73
2020/12/13 02:00:47;;;;;;;16.80;5.10;;;;;;;;;;5011964;28;20478;-74
2020/12/13 02:03:17;;;;;;;16.00;5.30;;;;;;;;;;5011152;28;20616;-73
2020/12/13 02:05:46;;;;;;;14.32;4.68;;;;;;;;;;5012128;28;20030;-74
2020/12/13 02:08:12;;;;;;;;;;;;;;;;;;5015535;28;20029;-71
2020/12/13 02:10:38;;;;;;;15.68;4.22;;;;;;;;;;5015374;28;20266;-72
2020/12/13 02:13:04;;;;;;;17.83;4.28;;;;;;;;;;5014407;28;20048;-74
2020/12/13 02:15:30;;;;;;;14.13;4.22;;;;;;;;;;5014439;28;20022;-71
2020/12/13 02:17:57;;;;;;;15.25;4.05;;;;;;;;;;5015456;28;20386;-72
2020/12/13 02:20:23;;;;;;;14.88;4.32;;;;;;;;;;5016516;28;20080;-73
2020/12/13 02:22:49;;;;;;;17.45;4.63;;;;;;;;;;5019448;28;20463;-73
2020/12/13 02:25:22;;;;;;;20.55;6.43;;;;;;;;;;5014803;28;20048;-72
2020/12/13 02:27:48;;;;;;;16.30;5.10;;;;;;;;;;5015300;28;20026;-72
2020/12/13 02:30:15;;;;;;;22.13;6.05;;;;;;;;;;5014179;28;20032;-72
2020/12/13 02:32:41;;;;;;;17.10;5.40;;;;;;;;;;5015505;28;20105;-73
2020/12/13 02:35:08;;;;;;;17.00;5.60;;;;;;;;;;5014797;28;20467;-72
2020/12/13 02:37:35;;;;;;;15.38;5.38;;;;;;;;;;5015566;28;20511;-74
2020/12/13 02:40:01;;;;;;;17.33;4.82;;;;;;;;;;5015548;28;20037;-74
2020/12/13 02:42:27;;;;;;;18.83;5.35;;;;;;;;;;5015120;28;20022;-71
2020/12/13 02:44:53;;;;;;;17.90;5.15;;;;;;;;;;5015016;28;20406;-72
2020/12/13 02:47:19;;;;;;;18.95;6.93;;;;;;;;;;5013619;28;20030;-73
2020/12/13 02:49:46;;;;;;;19.08;7.82;;;;;;;;;;5014803;28;20058;-73
2020/12/13 02:52:12;;;;;;;15.80;7.57;;;;;;;;;;5014937;28;20034;-73
2020/12/13 02:54:38;;;;;;;20.33;8.68;;;;;;;;;;5013696;28;20061;-73
2020/12/13 02:57:04;;;;;;;17.90;6.95;;;;;;;;;;5015118;28;20029;-72
2020/12/13 02:59:31;;;;;;;19.13;7.70;;;;;;;;;;5014687;28;20032;-72
2020/12/13 03:01:57;;;;;;;16.67;5.38;;;;;;;;;;5014929;28;20030;-72
2020/12/13 03:04:23;;;;;;;20.63;5.95;;;;;;;;;;5015248;28;20057;-72
2020/12/13 03:06:49;;;;;;;19.88;5.45;;;;;;;;;;5015042;28;20026;-73
2020/12/13 03:09:15;;;;;;;19.17;5.22;;;;;;;;;;5015143;28;20030;-73
2020/12/13 03:11:41;;;;;;;14.98;5.38;;;;;;;;;;5013471;28;20497;-73
2020/12/13 03:14:07;;;;;;;12.38;4.63;;;;;;;;;;5014428;28;20030;-74
2020/12/13 03:16:33;;;;;;;19.02;5.85;;;;;;;;;;5014289;28;20018;-72
2020/12/13 03:18:59;;;;;;;19.02;5.53;;;;;;;;;;5014105;28;20092;-71
2020/12/13 03:21:25;;;;;;;18.48;6.03;;;;;;;;;;5013002;28;20041;-73
2020/12/13 03:23:51;;;;;;;18.77;4.65;;;;;;;;;;5014231;28;20041;-72
2020/12/13 03:26:17;;;;;;;17.38;5.70;;;;;;;;;;5014018;28;20037;-72
2020/12/13 03:28:44;;;;;;;18.38;4.65;;;;;;;;;;5012715;28;20117;-72
2020/12/13 03:31:10;;;;;;;16.08;4.43;;;;;;;;;;5013916;28;20117;-72
2020/12/13 03:33:36;;;;;;;12.40;4.68;;;;;;;;;;5012499;28;20445;-72
2020/12/13 03:36:03;;;;;;;12.60;3.95;;;;;;;;;;5015722;28;20026;-70
2020/12/13 03:38:29;;;;;;;16.08;4.45;;;;;;;;;;5018102;28;20109;-71
2020/12/13 03:40:55;;;;;;;16.98;4.90;;;;;;;;;;5014351;28;20038;-71
2020/12/13 03:43:21;;;;;;;13.90;4.53;;;;;;;;;;5012533;28;20026;-71
2020/12/13 03:45:47;;;;;;;14.82;5.60;;;;;;;;;;5013751;28;20387;-70
2020/12/13 03:48:13;;;;;;;12.40;4.88;;;;;;;;;;5013627;28;20022;-70
2020/12/13 03:50:39;;;;;;;18.27;4.22;;;;;;;;;;5013663;28;20038;-71
2020/12/13 03:53:09;;;;;;;14.98;4.47;;;;;;;;;;5013611;28;20148;-72
2020/12/13 03:55:36;;;;;;;13.05;3.90;;;;;;;;;;5013414;28;20112;-72
2020/12/13 03:58:02;;;;;;;16.27;3.95;;;;;;;;;;5013377;28;20530;-73
2020/12/13 04:00:29;;;;;;;13.35;4.15;;;;;;;;;;5013255;28;20088;-72
2020/12/13 04:02:55;;;;;;;10.40;4.55;;;;;;;;;;5013097;28;20029;-72
2020/12/13 04:05:25;;;;;;;15.07;3.95;;;;;;;;;;5012008;28;20083;-72
2020/12/13 04:07:51;;;;;;;14.57;4.32;;;;;;;;;;5013316;28;20041;-72
2020/12/13 04:10:18;;;;;;;13.27;3.95;;;;;;;;;;5012988;28;20169;-71
2020/12/13 04:12:44;;;;;;;15.65;4.30;;;;;;;;;;5013012;28;20034;-72
2020/12/13 04:15:10;;;;;;;18.90;5.25;;;;;;;;;;5013280;28;20108;-70
2020/12/13 04:17:36;;;;;;;13.10;4.10;;;;;;;;;;5013253;28;20374;-71
2020/12/13 04:20:04;;;;;;;13.95;4.30;;;;;;;;;;5013042;28;20512;-71
2020/12/13 04:22:30;;;;;;;17.27;4.82;;;;;;;;;;5013202;28;20018;-71
2020/12/13 04:24:56;;;;;;;17.98;4.97;;;;;;;;;;5013005;28;20029;-71
2020/12/13 04:27:22;;;;;;;17.77;5.32;;;;;;;;;;5013264;28;20049;-71
2020/12/13 04:29:48;;;;;;;12.70;4.78;;;;;;;;;;5011264;28;20036;-72
2020/12/13 04:32:14;;;;;;;12.23;4.65;;;;;;;;;;5012739;28;20544;-72
2020/12/13 04:34:41;;;;;;;12.98;4.50;;;;;;;;;;5012879;28;20037;-72
2020/12/13 04:37:07;;;;;;;15.85;4.60;;;;;;;;;;5012668;28;20374;-73
2020/12/13 04:39:34;;;;;;;17.85;4.93;;;;;;;;;;5012667;28;20041;-71
2020/12/13 04:42:01;;;;;;;17.27;4.85;;;;;;;;;;5012729;28;20036;-72
2020/12/13 04:44:28;;;;;;;10.13;3.63;;;;;;;;;;5013054;28;20018;-73
2020/12/13 04:46:54;;;;;;;15.88;3.90;;;;;;;;;;5011470;28;20117;-72
2020/12/13 04:49:22;;;;;;;14.20;3.75;;;;;;;;;;5012693;28;20104;-72
2020/12/13 04:51:50;;;;;;;15.68;3.97;;;;;;;;;;5013048;28;20036;-72
2020/12/13 04:54:19;;;;;;;15.55;4.53;;;;;;;;;;5013264;28;20065;-72
2020/12/13 04:56:48;;;;;;;13.07;4.47;;;;;;;;;;5011216;28;20022;-72
2020/12/13 04:59:14;;;;;;;16.13;3.92;;;;;;;;;;5012525;28;20026;-73
2020/12/13 05:01:40;;;;;;;15.80;3.55;;;;;;;;;;5011420;28;20041;-73
2020/12/13 05:04:06;;;;;;;16.40;4.53;;;;;;;;;;5012362;28;20101;-73
2020/12/13 05:06:32;;;;;;;14.00;4.13;;;;;;;;;;5012496;28;20030;-72
2020/12/13 05:08:58;;;;;;;18.98;4.32;;;;;;;;;;5012246;28;20080;-72
2020/12/13 05:11:24;;;;;;;16.55;4.70;;;;;;;;;;5012232;28;20117;-70
2020/12/13 05:13:50;;;;;;;14.23;4.55;;;;;;;;;;5012358;28;20475;-71
2020/12/13 05:16:16;;;;;;;16.35;5.30;;;;;;;;;;5012760;28;20041;-71
2020/12/13 05:18:42;;;;;;;13.00;3.55;;;;;;;;;;5012489;28;20072;-71
2020/12/13 05:21:08;;;;;;;14.80;3.63;;;;;;;;;;5012201;28;20045;-71
2020/12/13 05:23:34;;;;;;;12.95;4.60;;;;;;;;;;5012307;28;20623;-72
2020/12/13 05:26:01;;;;;;;10.20;4.05;;;;;;;;;;5012231;28;20625;-72
2020/12/13 05:28:27;;;;;;;11.30;3.92;;;;;;;;;;5012195;28;20022;-72
2020/12/13 05:30:54;;;;;;;16.77;4.05;;;;;;;;;;5011079;28;20383;-73
2020/12/13 05:33:30;;;;;;;15.18;4.63;;;;;;;;;;5012183;28;20026;-72
2020/12/13 05:36:04;;;;;;;12.25;3.63;;;;;;;;;;5011011;28;20045;-73
2020/12/13 05:38:34;;;;;;;16.23;3.88;;;;;;;;;;5012252;28;20037;-73
2020/12/13 05:41:01;;;;;;;15.65;3.65;;;;;;;;;;5012323;28;20038;-73
2020/12/13 05:43:31;;;;;;;18.40;3.92;;;;;;;;;;5015657;28;20142;-73
2020/12/13 05:49:03;;;;;;;13.85;3.50;;;;;;;;;;5016116;28;20041;-73
2020/12/13 05:51:39;;;;;;;13.40;3.75;;;;;;;;;;5016023;28;20037;-73
2020/12/13 05:54:31;;;;;;;8.20;3.08;;;;;;;;;;5014715;28;20026;-73
2020/12/13 05:56:57;;;;;;;13.75;3.83;;;;;;;;;;5015522;28;20033;-73
2020/12/13 05:59:27;;;;;;;15.52;3.53;;;;;;;;;;5015810;28;20113;-73
2020/12/13 06:01:54;;;;;;;12.90;3.38;;;;;;;;;;5014761;28;20030;-74
2020/12/13 06:04:25;;;;;;;17.60;3.83;;;;;;;;;;5015485;28;20033;-74
2020/12/13 06:06:54;;;;;;;12.88;3.30;;;;;;;;;;5016077;28;20029;-73
2020/12/13 06:09:26;;;;;;;14.15;3.28;;;;;;;;;;5022070;28;20018;-73
2020/12/13 06:11:52;;;;;;;16.40;4.35;;;;;;;;;;5024199;28;20433;-73
2020/12/13 06:14:18;;;;;;;16.02;3.00;;;;;;;;;;5017519;28;20536;-74
2020/12/13 06:16:45;;;;;;;11.65;3.03;;;;;;;;;;5015513;28;20026;-71
2020/12/13 06:19:12;;;;;;;10.68;3.30;;;;;;;;;;5015457;28;20079;-73
2020/12/13 06:21:39;;;;;;;12.63;3.25;;;;;;;;;;5015496;28;20091;-72
2020/12/13 06:24:07;;;;;;;13.48;3.95;;;;;;;;;;5014067;28;20117;-73
2020/12/13 06:26:33;;;;;;;11.45;3.38;;;;;;;;;;5015255;28;20036;-72
2020/12/13 06:28:59;;;;;;;9.15;2.80;;;;;;;;;;5014023;28;20033;-71
2020/12/13 06:31:25;;;;;;;11.35;3.05;;;;;;;;;;5015526;28;20070;-73
2020/12/13 06:33:51;;;;;;;11.25;3.42;;;;;;;;;;5014956;28;20034;-72
2020/12/13 06:36:22;;;;;;;9.93;3.22;;;;;;;;;;5015151;28;20104;-73
2020/12/13 06:38:50;;;;;;;10.43;3.42;;;;;;;;;;5015065;28;20135;-73
2020/12/13 06:41:19;;;;;;;11.90;3.67;;;;;;;;;;5013782;28;20121;-74
2020/12/13 06:43:54;;;;;;;12.52;3.95;;;;;;;;;;5014919;28;20088;-73
2020/12/13 06:46:21;;;;;;;15.18;5.82;;;;;;;;;;5015665;28;20085;-73
2020/12/13 06:48:47;;;;;;;13.40;3.17;;;;;;;;;;5014891;28;20037;-72
2020/12/13 06:51:17;;;;;;;14.38;3.80;;;;;;;;;;5013523;28;20058;-72
2020/12/13 06:53:44;;;;;;;12.98;4.20;;;;;;;;;;5014364;28;20104;-73
2020/12/13 06:56:11;;;;;;;10.15;4.47;;;;;;;;;;5014690;28;20033;-72
2020/12/13 06:58:44;;;;;;;12.32;4.40;;;;;;;;;;5014632;28;20026;-73
2020/12/13 07:01:21;;;;;;;12.80;4.55;;;;;;;;;;5014716;28;20038;-73
2020/12/13 07:03:47;;;;;;;14.10;4.07;;;;;;;;;;5014369;28;20076;-74
2020/12/13 07:06:20;;;;;;;11.98;4.32;;;;;;;;;;5014469;28;20117;-73
2020/12/13 07:08:52;;;;;;;11.57;4.82;;;;;;;;;;5014319;28;20064;-72
2020/12/13 07:11:21;;;;;;;9.25;3.70;;;;;;;;;;5012982;28;20038;-72
2020/12/13 07:13:48;;;;;;;10.50;3.80;;;;;;;;;;5014386;28;20029;-73
2020/12/13 07:16:29;;;;;;;8.30;3.25;;;;;;;;;;5014340;28;20064;-72
2020/12/13 07:19:00;;;;;;;10.32;3.50;;;;;;;;;;5012769;28;20078;-72
2020/12/13 07:21:26;;;;;;;8.65;3.90;;;;;;;;;;5014257;28;20045;-72
2020/12/13 07:23:54;;;;;;;11.02;4.00;;;;;;;;;;5014782;28;20116;-73
2020/12/13 07:26:20;;;;;;;10.50;4.05;;;;;;;;;;5030514;28;20044;-74
2020/12/13 07:28:47;;;;;;;13.77;4.13;;;;;;;;;;5015475;28;20021;-74
2020/12/13 07:31:13;;;;;;;12.57;3.63;;;;;;;;;;5014466;28;20085;-77
2020/12/13 07:33:40;;;;;;;13.07;4.22;;;;;;;;;;5014031;28;20026;-76
2020/12/13 07:36:06;;;;;;;10.23;3.92;;;;;;;;;;5014783;28;20433;-75
2020/12/13 07:38:34;;;;;;;9.38;3.97;;;;;;;;;;5014133;28;20360;-75
2020/12/13 07:41:00;;;;;;;9.10;4.00;;;;;;;;;;5012589;28;20045;-76
2020/12/13 07:43:26;;;;;;;11.32;4.22;;;;;;;;;;5013881;28;20040;-74
2020/12/13 07:45:52;;;;;;;9.63;3.50;;;;;;;;;;5012410;28;20377;-75
2020/12/13 07:48:18;;;;;;;6.95;2.95;;;;;;;;;;5013402;28;20525;-73
2020/12/13 07:50:47;;;;;;;12.30;3.95;;;;;;;;;;5012355;28;20018;-73
2020/12/13 07:53:26;;;;;;;10.93;3.67;;;;;;;;;;5013820;28;20036;-73
2020/12/13 07:55:52;;;;;;;11.20;3.67;;;;;;;;;;5012473;28;20079;-72
2020/12/13 07:58:19;;;;;;;8.75;3.35;;;;;;;;;;5013283;28;20053;-72
2020/12/13 08:00:45;;;;;;;11.82;4.03;;;;;;;;;;5011968;28;20034;-71
2020/12/13 08:03:11;;;;;;;10.10;3.83;;;;;;;;;;5013381;28;20053;-72
2020/12/13 08:05:41;;;;;;;11.23;4.22;;;;;;;;;;5012729;28;20033;-72
2020/12/13 08:08:07;;;;;;;9.93;3.67;;;;;;;;;;5014221;28;20423;-73
2020/12/13 08:10:33;;;;;;;18.27;4.68;;;;;;;;;;5013417;28;20029;-72
2020/12/13 08:13:00;;;;;;;14.02;4.72;;;;;;;;;;5013141;28;20026;-71
2020/12/13 08:15:26;;;;;;;12.55;3.97;;;;;;;;;;5013319;28;20022;-73
2020/12/13 08:18:01;;;;;;;14.00;4.40;;;;;;;;;;5011655;28;20022;-71
2020/12/13 08:20:28;;;;;;;13.93;4.47;;;;;;;;;;5012968;28;20390;-71
2020/12/13 08:22:54;;;;;;;13.27;4.70;;;;;;;;;;5012943;28;20026;-72
2020/12/13 08:25:21;;;;;;;13.88;5.90;;;;;;;;;;5011483;28;20115;-74
2020/12/13 08:27:48;;;;;;;11.98;5.13;;;;;;;;;;5013131;28;20024;-69
2020/12/13 08:30:18;;;;;;;18.23;4.97;;;;;;;;;;5013123;28;20026;-73
2020/12/13 08:32:44;;;;;;;11.57;4.88;;;;;;;;;;5013010;28;20026;-67
2020/12/13 08:35:11;;;;;;;13.48;4.50;;;;;;;;;;5012507;28;20058;-66
2020/12/13 08:37:37;;;;;;;9.65;4.60;;;;;;;;;;5012746;28;20509;-68
2020/12/13 08:40:08;;;;;;;19.10;4.18;;;;;;;;;;5019007;28;20040;-70
2020/12/13 08:42:34;;;;;;;16.45;5.05;;;;;;;;;;5014498;28;20031;-70
2020/12/13 08:45:00;;;;;;;15.88;5.10;;;;;;;;;;5012609;28;20038;-67
2020/12/13 08:47:31;;;;;;;13.18;5.70;;;;;;;;;;5011208;28;20482;-65
2020/12/13 08:49:57;;;;;;;16.02;5.72;;;;;;;;;;5012312;28;20049;-66
2020/12/13 08:52:24;;;;;;;18.40;6.78;;;;;;;;;;5012334;28;20056;-66
2020/12/13 08:54:54;;;;;;;17.25;6.75;;;;;;;;;;5012361;28;20418;-66
2020/12/13 08:57:26;;;;;;;20.80;7.75;;;;;;;;;;5012597;28;20030;-65
2020/12/13 09:00:01;;;;;;;25.55;7.93;;;;;;;;;;5012058;28;20060;-64
2020/12/13 09:02:28;;;;;;;18.73;7.60;;;;;;;;;;5012476;28;20029;-65
2020/12/13 09:04:54;;;;;;;19.88;8.18;;;;;;;;;;5011213;28;20025;-62
2020/12/13 09:07:21;;;;;;;20.92;8.23;;;;;;;;;;5012314;28;20495;-66
2020/12/13 09:09:47;;;;;;;19.25;8.25;;;;;;;;;;5012359;28;20463;-66
2020/12/13 09:12:18;;;;;;;15.15;7.00;;;;;;;;;;5012105;28;20434;-64
2020/12/13 09:14:44;;;;;;;22.15;6.80;;;;;;;;;;5012303;28;20053;-63
2020/12/13 09:17:10;;;;;;;15.90;5.65;;;;;;;;;;5015640;28;20026;-70
2020/12/13 09:19:49;;;;;;;16.42;7.22;;;;;;;;;;5016082;28;20471;-68
2020/12/13 09:22:19;;;;;;;17.60;7.35;;;;;;;;;;5016014;28;20448;-63
2020/12/13 09:24:45;;;;;;;16.08;7.55;;;;;;;;;;5016545;28;20029;-68
2020/12/13 09:27:18;;;;;;;22.85;9.60;;;;;;;;;;5016086;28;20516;-65
2020/12/13 09:29:44;;;;;;;24.65;11.65;;;;;;;;;;5015096;28;20382;-66
2020/12/13 09:32:10;;;;;;;22.08;10.43;;;;;;;;;;5015025;28;20025;-65
2020/12/13 09:34:37;;;;;;;23.05;9.43;;;;;;;;;;5016108;28;20477;-66
2020/12/13 09:37:03;;;;;;;19.17;7.25;;;;;;;;;;5015897;28;20030;-66
2020/12/13 09:39:30;;;;;;;28.08;11.80;;;;;;;;;;5015546;28;20474;-65
2020/12/13 09:41:56;;;;;;;22.73;9.68;;;;;;;;;;5016467;28;20377;-70
2020/12/13 09:44:23;;;;;;;23.88;9.52;;;;;;;;;;5014631;28;20049;-70
2020/12/13 09:46:52;;;;;;;22.42;9.38;;;;;;;;;;5012410;28;20079;-70
2020/12/13 09:49:18;;;;;;;22.70;9.55;;;;;;;;;;5012823;28;20049;-70
2020/12/13 09:51:44;;;;;;;28.67;10.38;;;;;;;;;;5013189;28;20032;-70
2020/12/13 09:54:10;;;;;;;23.08;9.10;;;;;;;;;;5014468;28;20033;-70
2020/12/13 09:56:36;;;;;;;21.23;9.18;;;;;;;;;;5017713;28;20018;-69
2020/12/13 09:59:02;;;;;;;41.92;24.75;;;;;;;;;;5014838;28;20026;-71
2020/12/13 10:01:28;;;;;;;24.83;11.77;;;;;;;;;;5015498;28;20034;-70
2020/12/13 10:03:55;;;;;;;21.30;10.93;;;;;;;;;;5015711;28;20478;-70
2020/12/13 10:06:47;;;;;;;33.15;14.77;;;;;;;;;;5015669;28;20104;-69
2020/12/13 10:09:15;;;;;;;29.15;16.02;;;;;;;;;;5014482;28;20022;-70
2020/12/13 10:11:42;;;;;;;37.60;20.55;;;;;;;;;;5015485;28;20120;-70
2020/12/13 10:14:11;;;;;;;33.13;14.27;;;;;;;;;;5015487;28;20064;-70
2020/12/13 10:16:37;;;;;;;;;;;;;;;;;;5014655;28;20084;-70
2020/12/13 10:19:03;;;;;;;19.13;8.82;;;;;;;;;;5015779;28;19906;-71
2020/12/13 10:21:30;;;;;;;19.13;9.50;;;;;;;;;;5016803;28;20057;-68
2020/12/13 10:23:57;;;;;;;20.77;7.90;;;;;;;;;;5015593;28;20096;-70
2020/12/13 10:26:27;;;;;;;23.20;8.18;;;;;;;;;;5014271;28;20026;-70
2020/12/13 10:28:54;;;;;;;19.48;6.53;;;;;;;;;;5015074;28;20034;-70
2020/12/13 10:31:26;;;;;;;28.65;9.15;;;;;;;;;;5015287;28;20030;-71
2020/12/13 10:33:57;;;;;;;20.75;8.40;;;;;;;;;;5014080;28;20132;-66
2020/12/13 10:36:23;;;;;;;21.83;6.63;;;;;;;;;;5012139;28;20056;-66
2020/12/13 10:38:51;;;;;;;21.83;8.13;;;;;;;;;;5012874;28;20030;-65
2020/12/13 10:41:18;;;;;;;15.73;7.23;;;;;;;;;;5014416;28;20542;-64
2020/12/13 10:43:44;;;;;;;22.52;8.50;;;;;;;;;;5014943;28;20034;-64
2020/12/13 10:46:10;;;;;;;20.13;6.88;;;;;;;;;;5014490;28;20030;-71
2020/12/13 10:48:36;;;;;;;16.70;6.57;;;;;;;;;;5013323;28;20025;-65
2020/12/13 10:51:03;;;;;;;19.95;6.75;;;;;;;;;;5014762;28;20108;-65
2020/12/13 10:53:29;;;;;;;15.38;6.60;;;;;;;;;;5014891;28;20471;-74
2020/12/13 10:55:55;;;;;;;15.65;6.88;;;;;;;;;;5014222;28;20022;-72
2020/12/13 10:58:21;;;;;;;15.77;7.40;;;;;;;;;;5013367;28;20030;-72
2020/12/13 11:00:47;;;;;;;17.65;7.22;;;;;;;;;;5013026;28;20489;-71
2020/12/13 11:03:14;;;;;;;15.98;6.18;;;;;;;;;;5015058;28;20029;-69
2020/12/13 11:05:41;;;;;;;23.42;9.50;;;;;;;;;;5014377;28;20038;-71
2020/12/13 11:08:07;;;;;;;19.42;8.50;;;;;;;;;;5014435;28;20080;-71
2020/12/13 11:10:33;;;;;;;24.35;11.98;;;;;;;;;;5014740;28;20025;-70
2020/12/13 11:12:59;;;;;;;19.08;9.68;;;;;;;;;;5020271;28;20033;-71
2020/12/13 11:15:25;;;;;;;21.13;9.13;;;;;;;;;;5015117;28;20096;-72
2020/12/13 11:17:51;;;;;;;19.92;8.07;;;;;;;;;;5014800;28;20056;-72
2020/12/13 11:20:17;;;;;;;19.98;7.82;;;;;;;;;;5017768;28;20034;-73
2020/12/13 11:22:43;;;;;;;15.55;6.97;;;;;;;;;;5016539;28;20378;-71
2020/12/13 11:25:10;;;;;;;18.73;6.88;;;;;;;;;;5014191;28;20017;-71
2020/12/13 11:27:36;;;;;;;14.88;6.20;;;;;;;;;;5014067;28;20026;-71
2020/12/13 11:30:10;;;;;;;13.40;6.00;;;;;;;;;;5014663;28;20378;-70
2020/12/13 11:32:36;;;;;;;13.07;5.35;;;;;;;;;;5012648;28;20060;-66
2020/12/13 11:35:02;;;;;;;15.43;6.45;;;;;;;;;;5014073;28;20034;-68
2020/12/13 11:37:28;;;;;;;16.23;6.55;;;;;;;;;;5014086;28;20021;-70
2020/12/13 11:39:56;;;;;;;23.20;7.40;;;;;;;;;;5012788;28;20034;-68
2020/12/13 11:42:22;;;;;;;24.77;12.45;;;;;;;;;;5013689;28;20022;-64
2020/12/13 11:44:49;;;;;;;28.48;14.25;;;;;;;;;;5013882;28;20037;-67
2020/12/13 11:47:15;;;;;;;25.05;13.48;;;;;;;;;;5013776;28;20030;-60
2020/12/13 11:49:41;;;;;;;26.15;10.52;;;;;;;;;;5013657;28;20042;-68
2020/12/13 11:52:07;;;;;;;24.90;9.68;;;;;;;;;;5012486;28;20034;-66
2020/12/13 11:54:33;;;;;;;26.02;11.55;;;;;;;;;;5013557;28;20040;-67
2020/12/13 11:56:59;;;;;;;28.80;13.07;;;;;;;;;;5013599;28;20478;-66
2020/12/13 11:59:28;;;;;;;34.70;13.18;;;;;;;;;;5013390;28;20439;-64
2020/12/13 12:01:54;;;;;;;26.48;11.65;;;;;;;;;;5013321;28;20021;-71
2020/12/13 12:04:20;;;;;;;24.95;9.00;;;;;;;;;;5013200;28;20378;-70
2020/12/13 12:06:47;;;;;;;22.17;9.82;;;;;;;;;;5011868;28;20126;-67
2020/12/13 12:09:14;;;;;;;32.25;13.95;;;;;;;;;;5013044;28;20029;-63
2020/12/13 12:11:40;;;;;;;31.13;10.82;;;;;;;;;;5013043;28;20034;-63
2020/12/13 12:14:10;;;;;;;30.08;9.15;;;;;;;;;;5013262;28;20105;-66
2020/12/13 12:16:37;;;;;;;31.63;12.25;;;;;;;;;;5012812;28;20471;-65
2020/12/13 12:19:03;;;;;;;73.30;31.75;;;;;;;;;;5012889;28;20036;-67
2020/12/13 12:21:30;;;;;;;60.15;25.15;;;;;;;;;;5012921;28;20072;-66
2020/12/13 12:23:56;;;;;;;55.35;25.17;;;;;;;;;;5012630;28;20037;-67
2020/12/13 12:26:28;;;;;;;24.75;10.25;;;;;;;;;;5012898;28;20133;-62
2020/12/13 12:28:54;;;;;;;46.72;18.40;;;;;;;;;;5012825;28;20540;-62
2020/12/13 12:31:20;;;;;;;29.10;12.38;;;;;;;;;;5013073;28;20497;-61
2020/12/13 12:33:47;;;;;;;26.48;10.73;;;;;;;;;;5012834;28;20030;-62
2020/12/13 12:36:20;;;;;;;19.83;9.13;;;;;;;;;;5012618;28;20110;-62
2020/12/13 12:38:46;;;;;;;26.48;8.50;;;;;;;;;;5012688;28;20033;-62
2020/12/13 12:41:13;;;;;;;23.25;11.98;;;;;;;;;;5012583;28;20451;-63
2020/12/13 12:43:39;;;;;;;36.88;19.52;;;;;;;;;;5011388;28;20036;-63
2020/12/13 12:46:06;;;;;;;79.57;38.33;;;;;;;;;;5012463;28;20030;-64
2020/12/13 12:48:32;;;;;;;72.68;31.10;;;;;;;;;;5012597;28;20037;-63
2020/12/13 12:51:02;;;;;;;39.13;16.95;;;;;;;;;;5012462;28;20049;-62
2020/12/13 12:53:29;;;;;;;29.10;14.45;;;;;;;;;;5012563;28;20061;-63
2020/12/13 12:55:55;;;;;;;28.50;10.82;;;;;;;;;;5012376;28;20101;-61
2020/12/13 12:58:22;;;;;;;26.08;10.75;;;;;;;;;;5012490;28;20053;-61
2020/12/13 13:01:03;;;;;;;24.42;8.90;;;;;;;;;;5012353;28;20033;-63
2020/12/13 13:03:31;;;;;;;22.92;8.30;;;;;;;;;;5012444;28;20025;-62
2020/12/13 13:08:34;;;;;;;19.70;7.32;;;;;;;;;;5012331;28;20522;-62
2020/12/13 13:11:12;;;;;;;20.77;7.57;;;;;;;;;;5011917;28;20026;-62
2020/12/13 13:13:38;;;;;;;14.85;6.60;;;;;;;;;;5012458;28;20046;-63
2020/12/13 13:16:04;;;;;;;18.05;7.07;;;;;;;;;;5012394;28;20029;-63
2020/12/13 13:18:34;;;;;;;24.35;8.43;;;;;;;;;;5011136;28;20464;-63
2020/12/13 13:21:02;;;;;;;13.68;7.78;;;;;;;;;;5010904;28;20056;-64
2020/12/13 13:23:29;;;;;;;;;;;;;;;;;;5012704;28;20029;-62
2020/12/13 13:25:55;;;;;;;19.17;7.55;;;;;;;;;;5010919;28;19905;-63
2020/12/13 13:28:21;;;;;;;17.27;6.18;;;;;;;;;;5012305;28;20032;-64
2020/12/13 13:30:48;;;;;;;13.85;5.88;;;;;;;;;;5012460;28;20033;-64
2020/12/13 13:33:14;;;;;;;17.25;6.95;;;;;;;;;;5012257;28;20018;-62
2020/12/13 13:35:40;;;;;;;18.52;6.60;;;;;;;;;;5012212;28;20045;-62
2020/12/13 13:38:07;;;;;;;22.73;14.88;;;;;;;;;;5012069;28;20033;-61
2020/12/13 13:40:34;;;;;;;25.85;13.48;;;;;;;;;;5012076;28;20455;-64
2020/12/13 13:43:04;;;;;;;42.13;19.08;;;;;;;;;;5012286;28;20014;-63
2020/12/13 13:50:44;;;;;;;27.88;13.93;;;;;;;;;;5012256;28;20030;-62
2020/12/13 13:53:11;;;;;;;54.70;21.48;;;;;;;;;;5011896;28;20032;-62
2020/12/13 13:55:46;;;;;;;147.07;53.30;;;;;;;;;;5010517;28;20030;-61
2020/12/13 13:58:13;;;;;;;119.75;41.53;;;;;;;;;;5011212;28;20014;-63
2020/12/13 14:00:39;;;;;;;120.75;44.67;;;;;;;;;;5011057;28;20052;-62
2020/12/13 14:03:05;;;;;;;76.75;29.80;;;;;;;;;;5011377;28;20386;-62
2020/12/13 14:05:39;;;;;;;64.85;29.17;;;;;;;;;;5015193;28;20030;-61
2020/12/13 14:10:43;;;;;;;;;;;;;;;;;;5015704;28;20519;-62
2020/12/13 14:13:09;;;;;;;41.15;15.82;;;;;;;;;;5015169;28;19928;-61
2020/12/13 14:15:36;;;;;;;34.25;13.75;;;;;;;;;;5015423;28;20018;-62
2020/12/13 14:18:02;;;;;;;28.20;12.38;;;;;;;;;;5015479;28;20030;-62
2020/12/13 14:20:28;;;;;;;36.40;16.30;;;;;;;;;;5015357;28;20095;-62
2020/12/13 14:22:59;;;;;;;38.92;16.42;;;;;;;;;;5015381;28;20064;-62
2020/12/13 14:25:25;;;;;;;28.20;12.98;;;;;;;;;;5015233;28;20022;-62
2020/12/13 14:27:51;;;;;;;23.15;11.20;;;;;;;;;;5014031;28;20088;-62
2020/12/13 14:30:17;;;;;;;19.27;9.20;;;;;;;;;;5015150;28;20037;-62
2020/12/13 14:32:43;;;;;;;17.52;7.97;;;;;;;;;;5015015;28;20057;-60
2020/12/13 14:35:09;;;;;;;15.88;7.45;;;;;;;;;;5015021;28;20370;-65
2020/12/13 14:37:36;;;;;;;14.52;6.95;;;;;;;;;;5015144;28;20521;-62
2020/12/13 14:40:03;;;;;;;15.35;7.03;;;;;;;;;;5014814;28;20022;-61
2020/12/13 14:42:29;;;;;;;13.40;5.97;;;;;;;;;;5014978;28;20402;-62
2020/12/13 14:44:55;;;;;;;15.27;6.15;;;;;;;;;;5014849;28;20041;-63
2020/12/13 14:47:22;;;;;;;11.88;5.68;;;;;;;;;;5014761;28;20029;-63